createdAt,value
2018-09-15T00:01:57.953Z,22.10
2018-09-15T00:04:26.334Z,23.13
2018-09-15T00:06:54.710Z,21.37
2018-09-15T00:09:23.025Z,19.03
2018-09-15T00:11:51.478Z,18.73
2018-09-15T00:14:19.848Z,18.87
2018-09-15T00:16:48.285Z,15.93
2018-09-15T00:19:16.601Z,19.10
2018-09-15T00:21:44.987Z,18.27
2018-09-15T00:24:13.416Z,18.90
2018-09-15T00:26:41.932Z,20.57
2018-09-15T00:29:10.312Z,17.80
2018-09-15T00:31:38.716Z,19.80
2018-09-15T00:34:07.117Z,20.30
2018-09-15T00:36:35.554Z,20.10
2018-09-15T00:39:05.624Z,16.57
2018-09-15T00:41:33.987Z,22.40
2018-09-15T00:44:02.318Z,20.13
2018-09-15T00:46:30.746Z,23.00
2018-09-15T00:48:59.242Z,19.67
2018-09-15T00:51:27.618Z,19.67
2018-09-15T00:53:56.134Z,29.87
2018-09-15T00:56:24.505Z,24.47
2018-09-15T00:58:52.923Z,24.47
2018-09-15T01:01:21.195Z,22.40
2018-09-15T01:03:49.697Z,35.27
2018-09-15T01:06:18.051Z,25.07
2018-09-15T01:08:46.462Z,30.83
2018-09-15T01:11:14.947Z,36.20
2018-09-15T01:13:43.239Z,30.50
2018-09-15T01:16:11.643Z,35.23
2018-09-15T01:18:39.998Z,29.80
2018-09-15T01:21:08.594Z,31.30
2018-09-15T01:23:36.967Z,35.60
2018-09-15T01:26:05.391Z,38.70
2018-09-15T01:28:33.702Z,36.87
2018-09-15T01:31:02.027Z,26.30
2018-09-15T01:33:30.410Z,30.00
2018-09-15T01:35:58.794Z,35.33
2018-09-15T01:38:27.193Z,33.70
2018-09-15T01:40:55.532Z,44.83
2018-09-15T01:43:23.863Z,30.43
2018-09-15T01:45:52.221Z,35.80
2018-09-15T01:48:20.548Z,31.67
2018-09-15T01:50:48.923Z,29.90
2018-09-15T01:53:17.267Z,32.20
2018-09-15T01:55:45.605Z,27.00
2018-09-15T01:58:13.901Z,27.57
2018-09-15T02:00:42.374Z,31.33
2018-09-15T02:03:10.748Z,26.43
2018-09-15T02:05:39.090Z,27.97
2018-09-15T02:08:07.470Z,38.37
2018-09-15T02:10:35.811Z,31.33
2018-09-15T02:13:04.206Z,35.43
2018-09-15T02:15:32.578Z,27.10
2018-09-15T02:18:00.948Z,27.23
2018-09-15T02:20:29.465Z,29.93
2018-09-15T02:22:57.870Z,31.10
2018-09-15T02:25:26.198Z,34.60
2018-09-15T02:27:54.530Z,31.53
2018-09-15T02:30:22.880Z,33.37
2018-09-15T02:32:51.188Z,28.23
2018-09-15T02:35:19.547Z,27.63
2018-09-15T02:37:47.862Z,31.00
2018-09-15T02:40:16.283Z,31.43
2018-09-15T02:42:44.570Z,25.57
2018-09-15T02:45:12.907Z,29.00
2018-09-15T02:47:41.231Z,31.97
2018-09-15T02:50:09.635Z,36.67
2018-09-15T02:52:37.974Z,36.00
2018-09-15T02:55:06.353Z,34.03
2018-09-15T02:57:34.993Z,28.43
2018-09-15T03:02:42.744Z,34.87
2018-09-15T03:05:11.140Z,27.63
2018-09-15T03:07:39.545Z,27.77
2018-09-15T03:10:07.954Z,28.27
2018-09-15T03:12:36.267Z,27.33
2018-09-15T03:15:04.755Z,33.73
2018-09-15T03:17:33.103Z,29.00
2018-09-15T03:20:01.415Z,29.70
2018-09-15T03:22:29.834Z,27.40
2018-09-15T03:24:58.235Z,30.80
2018-09-15T03:27:26.556Z,30.30
2018-09-15T03:29:54.928Z,30.57
2018-09-15T03:32:23.318Z,27.10
2018-09-15T03:34:51.740Z,26.67
2018-09-15T03:37:20.154Z,26.37
2018-09-15T03:39:48.526Z,27.83
2018-09-15T03:42:16.892Z,28.10
2018-09-15T03:44:45.311Z,26.67
2018-09-15T03:47:13.679Z,26.97
2018-09-15T03:49:42.046Z,34.73
2018-09-15T03:52:10.454Z,31.77
2018-09-15T03:54:38.813Z,35.60
2018-09-15T03:57:07.238Z,28.60
2018-09-15T03:59:35.643Z,38.53
2018-09-15T04:02:04.055Z,27.50
2018-09-15T04:04:32.413Z,28.50
2018-09-15T04:07:00.857Z,30.10
2018-09-15T04:09:29.259Z,28.90
2018-09-15T04:11:57.703Z,26.97
2018-09-15T04:14:26.103Z,29.83
2018-09-15T04:16:54.680Z,33.80
2018-09-15T04:19:23.063Z,25.37
2018-09-15T04:21:51.610Z,30.50
2018-09-15T04:24:20.016Z,28.57
2018-09-15T04:26:48.441Z,29.53
2018-09-15T04:29:16.828Z,29.80
2018-09-15T04:31:45.253Z,30.43
2018-09-15T04:34:13.651Z,28.87
2018-09-15T04:36:42.030Z,31.43
2018-09-15T04:39:11.971Z,32.70
2018-09-15T04:41:40.736Z,28.33
2018-09-15T04:44:08.992Z,29.17
2018-09-15T04:46:37.418Z,29.23
2018-09-15T04:49:05.904Z,34.50
2018-09-15T04:51:34.343Z,28.00
2018-09-15T04:54:02.662Z,31.80
2018-09-15T04:56:31.027Z,26.50
2018-09-15T04:58:59.484Z,28.40
2018-09-15T05:01:27.850Z,32.87
2018-09-15T05:03:56.297Z,24.77
2018-09-15T05:06:24.749Z,29.10
2018-09-15T05:08:53.234Z,25.83
2018-09-15T05:11:21.807Z,27.40
2018-09-15T05:13:50.351Z,24.13
2018-09-15T05:16:18.755Z,24.10
2018-09-15T05:18:47.326Z,26.10
2018-09-15T05:21:15.737Z,28.63
2018-09-15T05:23:44.179Z,24.50
2018-09-15T05:26:12.541Z,24.97
2018-09-15T05:28:40.914Z,25.73
2018-09-15T05:31:09.355Z,23.47
2018-09-15T05:33:37.730Z,25.70
2018-09-15T05:36:06.139Z,37.40
2018-09-15T05:38:34.523Z,20.17
2018-09-15T05:41:02.955Z,22.87
2018-09-15T05:43:31.381Z,21.60
2018-09-15T05:45:59.777Z,18.67
2018-09-15T05:48:28.224Z,20.73
2018-09-15T05:50:56.616Z,15.87
2018-09-15T05:53:25.035Z,19.43
2018-09-15T05:55:53.585Z,16.27
2018-09-15T05:58:21.867Z,12.80
2018-09-15T06:00:50.238Z,15.00
2018-09-15T06:03:18.618Z,11.83
2018-09-15T06:05:47.015Z,7.40
2018-09-15T06:08:15.378Z,8.47
2018-09-15T06:10:44.043Z,7.63
2018-09-15T06:13:12.339Z,7.47
2018-09-15T06:15:40.747Z,8.87
2018-09-15T06:18:09.186Z,11.20
2018-09-15T06:20:37.603Z,8.80
2018-09-15T06:23:06.123Z,8.03
2018-09-15T06:25:34.543Z,5.70
2018-09-15T06:28:02.966Z,7.40
2018-09-15T06:30:31.358Z,7.17
2018-09-15T06:32:59.762Z,5.33
2018-09-15T06:35:28.170Z,6.60
2018-09-15T06:37:56.691Z,9.07
2018-09-15T06:40:25.150Z,4.77
2018-09-15T06:42:53.539Z,5.03
2018-09-15T06:45:21.983Z,5.20
2018-09-15T06:47:50.355Z,6.07
2018-09-15T06:50:18.760Z,5.47
2018-09-15T06:52:47.162Z,5.20
2018-09-15T06:55:15.700Z,5.13
2018-09-15T06:57:44.082Z,3.23
2018-09-15T07:00:12.523Z,5.43
2018-09-15T07:02:40.950Z,8.13
2018-09-15T07:05:09.374Z,5.70
2018-09-15T07:07:37.776Z,8.23
2018-09-15T07:10:06.190Z,7.73
2018-09-15T07:12:34.647Z,7.70
2018-09-15T07:15:03.111Z,4.10
2018-09-15T07:17:31.495Z,7.50
2018-09-15T07:19:59.925Z,5.13
2018-09-15T07:22:28.308Z,7.17
2018-09-15T07:24:56.734Z,4.90
2018-09-15T07:27:26.081Z,5.43
2018-09-15T07:29:54.531Z,10.27
2018-09-15T07:32:22.936Z,6.03
2018-09-15T07:34:51.407Z,6.50
2018-09-15T07:37:19.782Z,7.03
2018-09-15T07:39:48.286Z,4.73
2018-09-15T07:42:16.687Z,7.60
2018-09-15T07:44:45.228Z,9.03
2018-09-15T07:47:13.538Z,6.77
2018-09-15T07:49:41.951Z,5.73
2018-09-15T07:52:10.355Z,8.37
2018-09-15T07:54:38.729Z,6.43
2018-09-15T07:57:07.086Z,9.17
2018-09-15T07:59:35.462Z,7.93
2018-09-15T08:02:08.081Z,11.27
2018-09-15T08:04:36.488Z,10.20
2018-09-15T08:07:05.035Z,8.37
2018-09-15T08:09:33.461Z,9.73
2018-09-15T08:12:01.858Z,8.17
2018-09-15T08:14:30.239Z,11.73
2018-09-15T08:16:58.655Z,8.33
2018-09-15T08:19:27.064Z,7.67
2018-09-15T08:21:55.544Z,10.53
2018-09-15T08:24:24.973Z,10.63
2018-09-15T08:26:53.476Z,9.00
2018-09-15T08:29:22.155Z,6.50
2018-09-15T08:31:50.902Z,6.87
2018-09-15T08:34:19.299Z,8.50
2018-09-15T08:36:47.690Z,6.93
2018-09-15T08:39:16.074Z,5.13
2018-09-15T08:41:44.491Z,4.90
2018-09-15T08:44:12.884Z,7.93
2018-09-15T08:46:41.291Z,7.20
2018-09-15T08:49:10.743Z,5.87
2018-09-15T08:51:39.142Z,7.73
2018-09-15T08:54:07.533Z,11.53
2018-09-15T08:56:35.997Z,8.53
2018-09-15T08:59:04.405Z,7.53
2018-09-15T09:01:32.716Z,8.87
2018-09-15T09:04:01.152Z,5.23
2018-09-15T09:06:29.509Z,6.60
2018-09-15T09:08:57.886Z,4.70
2018-09-15T09:11:26.311Z,7.50
2018-09-15T09:13:54.725Z,5.70
2018-09-15T09:16:23.134Z,4.07
2018-09-15T09:18:51.575Z,4.13
2018-09-15T09:21:20.213Z,3.73
2018-09-15T09:23:48.645Z,7.20
2018-09-15T09:26:17.170Z,5.27
2018-09-15T09:28:45.514Z,4.20
2018-09-15T09:31:13.951Z,5.20
2018-09-15T09:33:42.399Z,5.77
2018-09-15T09:36:10.970Z,3.93
2018-09-15T09:38:39.447Z,6.50
2018-09-15T09:41:08.935Z,4.97
2018-09-15T09:43:37.365Z,8.03
2018-09-15T09:46:05.765Z,5.00
2018-09-15T09:48:34.166Z,5.00
2018-09-15T09:51:02.561Z,4.50
2018-09-15T09:53:30.975Z,5.07
2018-09-15T09:55:59.391Z,6.27
2018-09-15T09:58:27.847Z,5.00
2018-09-15T10:00:58.075Z,7.33
2018-09-15T10:03:27.530Z,5.73
2018-09-15T10:05:55.985Z,6.53
2018-09-15T10:08:24.407Z,4.70
2018-09-15T10:10:52.800Z,5.40
2018-09-15T10:13:21.205Z,5.33
2018-09-15T10:15:49.624Z,7.20
2018-09-15T10:18:17.996Z,6.13
2018-09-15T10:20:46.379Z,7.97
2018-09-15T10:23:14.841Z,4.33
2018-09-15T10:25:43.235Z,3.83
2018-09-15T10:28:11.615Z,3.73
2018-09-15T10:30:40.027Z,5.80
2018-09-15T10:33:08.483Z,5.80
2018-09-15T10:35:36.902Z,4.87
2018-09-15T10:38:05.316Z,3.70
2018-09-15T10:40:33.849Z,2.50
2018-09-15T10:43:02.156Z,2.07
2018-09-15T10:45:30.621Z,4.00
2018-09-15T10:47:59.035Z,3.27
2018-09-15T10:50:27.489Z,10.73
2018-09-15T10:52:56.333Z,6.93
2018-09-15T10:55:24.818Z,2.93
2018-09-15T10:57:53.187Z,3.23
2018-09-15T11:00:21.757Z,2.80
2018-09-15T11:02:50.157Z,4.77
2018-09-15T11:05:18.587Z,3.97
2018-09-15T11:07:47.115Z,4.10
2018-09-15T11:10:15.496Z,7.73
2018-09-15T11:12:43.886Z,4.70
2018-09-15T11:15:12.269Z,3.33
2018-09-15T11:17:40.700Z,3.27
2018-09-15T11:20:09.108Z,4.20
2018-09-15T11:22:37.484Z,4.20
2018-09-15T11:25:05.870Z,8.43
2018-09-15T11:27:34.261Z,5.63
2018-09-15T11:30:02.619Z,9.03
2018-09-15T11:32:31.059Z,8.00
2018-09-15T11:34:59.445Z,6.93
2018-09-15T11:37:28.028Z,3.43
2018-09-15T11:39:56.422Z,6.70
2018-09-15T11:42:24.911Z,5.43
2018-09-15T11:44:53.359Z,4.93
2018-09-15T11:47:21.799Z,6.50
2018-09-15T11:49:50.217Z,3.90
2018-09-15T11:52:18.671Z,3.80
2018-09-15T11:54:47.116Z,5.03
2018-09-15T11:57:15.470Z,4.20
2018-09-15T11:59:43.898Z,4.23
2018-09-15T12:02:12.243Z,4.87
2018-09-15T12:04:40.675Z,7.70
2018-09-15T12:07:08.964Z,4.70
2018-09-15T12:09:37.440Z,5.67
2018-09-15T12:12:05.974Z,4.20
2018-09-15T12:14:34.400Z,7.00
2018-09-15T12:17:02.892Z,4.97
2018-09-15T12:19:31.410Z,6.87
2018-09-15T12:21:59.815Z,3.73
2018-09-15T12:24:28.242Z,6.33
2018-09-15T12:26:56.635Z,8.73
2018-09-15T12:29:25.174Z,7.70
2018-09-15T12:31:53.641Z,8.13
2018-09-15T12:34:22.054Z,5.03
2018-09-15T12:37:00.620Z,8.10
2018-09-15T12:42:06.034Z,6.43
2018-09-15T12:44:34.307Z,4.60
2018-09-15T12:47:02.586Z,6.27
2018-09-15T12:49:30.895Z,2.73
2018-09-15T12:51:59.304Z,5.17
2018-09-15T12:54:27.698Z,3.30
2018-09-15T12:56:56.120Z,6.80
2018-09-15T12:59:24.513Z,7.27
2018-09-15T13:01:52.987Z,3.70
2018-09-15T13:04:21.357Z,7.50
2018-09-15T13:06:50.061Z,3.80
2018-09-15T13:09:18.370Z,5.93
2018-09-15T13:11:46.746Z,8.97
2018-09-15T13:14:15.151Z,3.80
2018-09-15T13:16:43.578Z,4.70
2018-09-15T13:19:12.022Z,5.60
2018-09-15T13:21:40.439Z,7.73
2018-09-15T13:24:08.850Z,5.40
2018-09-15T13:26:37.255Z,6.97
2018-09-15T13:29:05.814Z,8.03
2018-09-15T13:31:34.314Z,7.93
2018-09-15T13:34:02.853Z,7.40
2018-09-15T13:36:31.249Z,4.67
2018-09-15T13:38:59.839Z,7.63
2018-09-15T13:41:28.257Z,7.17
2018-09-15T13:43:56.697Z,12.17
2018-09-15T13:46:25.078Z,5.13
2018-09-15T13:48:53.532Z,6.23
2018-09-15T13:51:21.883Z,4.80
2018-09-15T13:53:50.275Z,9.40
2018-09-15T13:56:18.690Z,5.43
2018-09-15T13:58:47.038Z,7.80
2018-09-15T14:01:15.383Z,4.47
2018-09-15T14:03:43.761Z,7.00
2018-09-15T14:06:12.180Z,8.63
2018-09-15T14:08:40.754Z,8.30
2018-09-15T14:11:09.136Z,7.03
2018-09-15T14:13:37.519Z,8.80
2018-09-15T14:16:05.950Z,7.73
2018-09-15T14:18:34.338Z,3.50
2018-09-15T14:21:02.785Z,6.43
2018-09-15T14:23:31.176Z,4.10
2018-09-15T14:25:59.601Z,6.70
2018-09-15T14:28:28.013Z,9.80
2018-09-15T14:30:56.411Z,7.00
2018-09-15T14:33:24.833Z,7.77
2018-09-15T14:35:53.190Z,5.83
2018-09-15T14:38:21.679Z,5.93
2018-09-15T14:40:50.189Z,2.70
2018-09-15T14:43:18.619Z,5.33
2018-09-15T14:45:47.078Z,2.80
2018-09-15T14:48:15.588Z,3.30
2018-09-15T14:50:43.938Z,4.17
2018-09-15T14:53:12.361Z,2.63
2018-09-15T14:55:40.802Z,2.83
2018-09-15T14:58:09.242Z,2.67
2018-09-15T15:00:37.666Z,3.83
2018-09-15T15:03:07.887Z,3.17
2018-09-15T15:05:36.231Z,2.70
2018-09-15T15:08:04.852Z,2.93
2018-09-15T15:10:33.297Z,3.10
2018-09-15T15:13:01.671Z,3.70
2018-09-15T15:15:30.060Z,2.60
2018-09-15T15:17:58.459Z,4.83
2018-09-15T15:20:26.862Z,3.10
2018-09-15T15:22:55.274Z,6.37
2018-09-15T15:25:23.650Z,6.70
2018-09-15T15:27:52.011Z,9.63
2018-09-15T15:30:20.450Z,3.80
2018-09-15T15:32:48.898Z,5.00
2018-09-15T15:35:23.891Z,4.13
2018-09-15T15:37:52.115Z,3.20
2018-09-15T15:40:20.438Z,4.70
2018-09-15T15:42:48.738Z,8.30
2018-09-15T15:45:17.047Z,4.27
2018-09-15T15:47:45.361Z,3.40
2018-09-15T15:50:13.700Z,2.80
2018-09-15T15:52:41.983Z,8.87
2018-09-15T15:55:10.270Z,10.03
2018-09-15T15:57:38.548Z,3.67
2018-09-15T16:00:07.093Z,6.97
2018-09-15T16:02:35.614Z,6.90
2018-09-15T16:05:03.952Z,5.30
2018-09-15T16:07:32.348Z,7.70
2018-09-15T16:10:00.658Z,7.90
2018-09-15T16:12:28.991Z,9.53
2018-09-15T16:14:57.277Z,7.23
2018-09-15T16:17:25.535Z,7.77
2018-09-15T16:19:53.805Z,7.33
2018-09-15T16:22:22.145Z,10.57
2018-09-15T16:24:50.444Z,8.03
2018-09-15T16:27:18.694Z,5.30
2018-09-15T16:29:46.963Z,4.70
2018-09-15T16:32:15.238Z,6.20
2018-09-15T16:34:43.514Z,6.00
2018-09-15T16:37:11.800Z,22.23
2018-09-15T16:39:40.064Z,4.60
2018-09-15T16:42:08.328Z,5.70
2018-09-15T16:44:36.696Z,7.97
2018-09-15T16:47:05.295Z,6.50
2018-09-15T16:49:33.686Z,8.00
2018-09-15T16:52:02.058Z,9.63
2018-09-15T16:54:30.392Z,6.40
2018-09-15T16:56:58.846Z,6.77
2018-09-15T16:59:27.131Z,7.37
2018-09-15T17:01:55.534Z,7.40
2018-09-15T17:04:23.951Z,5.43
2018-09-15T17:06:52.302Z,6.40
2018-09-15T17:09:20.698Z,6.37
2018-09-15T17:11:49.111Z,7.10
2018-09-15T17:14:17.470Z,8.33
2018-09-15T17:16:45.976Z,8.17
2018-09-15T17:19:14.266Z,7.10
2018-09-15T17:21:42.667Z,8.13
2018-09-15T17:24:11.048Z,6.90
2018-09-15T17:26:39.512Z,10.50
2018-09-15T17:29:07.915Z,12.10
2018-09-15T17:31:36.324Z,5.87
2018-09-15T17:34:04.693Z,10.20
2018-09-15T17:36:33.051Z,10.23
2018-09-15T17:39:01.415Z,9.90
2018-09-15T17:41:29.774Z,10.80
2018-09-15T17:43:58.159Z,12.80
2018-09-15T17:46:26.524Z,12.23
2018-09-15T17:48:54.956Z,13.43
2018-09-15T17:51:23.337Z,9.43
2018-09-15T17:53:51.740Z,10.60
2018-09-15T17:56:20.267Z,9.40
2018-09-15T17:58:48.643Z,10.13
2018-09-15T18:01:17.012Z,7.33
2018-09-15T18:03:45.400Z,11.10
2018-09-15T18:06:13.890Z,8.13
2018-09-15T18:08:42.250Z,13.47
2018-09-15T18:11:10.644Z,6.90
2018-09-15T18:13:39.056Z,14.40
2018-09-15T18:16:07.506Z,11.13
2018-09-15T18:18:35.887Z,7.63
2018-09-15T18:21:04.303Z,13.57
2018-09-15T18:23:32.774Z,14.80
2018-09-15T18:26:01.167Z,11.50
2018-09-15T18:28:29.524Z,13.63
2018-09-15T18:30:57.919Z,17.87
2018-09-15T18:33:26.316Z,11.93
2018-09-15T18:35:54.743Z,7.70
2018-09-15T18:38:23.127Z,8.70
2018-09-15T18:40:51.498Z,9.83
2018-09-15T18:43:19.905Z,11.93
2018-09-15T18:45:48.247Z,9.83
2018-09-15T18:48:16.636Z,11.47
2018-09-15T18:50:45.086Z,10.27
2018-09-15T18:53:13.411Z,8.27
2018-09-15T18:55:41.836Z,10.00
2018-09-15T18:58:10.261Z,12.90
2018-09-15T19:00:38.579Z,11.43
2018-09-15T19:03:06.993Z,15.27
2018-09-15T19:05:35.337Z,8.70
2018-09-15T19:08:03.711Z,11.33
2018-09-15T19:10:32.107Z,10.17
2018-09-15T19:13:00.587Z,10.60
2018-09-15T19:15:28.980Z,18.73
2018-09-15T19:17:57.342Z,10.63
2018-09-15T19:20:25.790Z,10.43
2018-09-15T19:22:54.127Z,9.60
2018-09-15T19:25:22.547Z,8.83
2018-09-15T19:27:50.928Z,11.30
2018-09-15T19:30:19.388Z,10.53
2018-09-15T19:32:47.808Z,17.27
2018-09-15T19:35:16.190Z,8.90
2018-09-15T19:37:44.619Z,8.90
2018-09-15T19:40:12.989Z,11.90
2018-09-15T19:42:41.328Z,10.70
2018-09-15T19:45:09.731Z,12.77
2018-09-15T19:47:38.028Z,8.83
2018-09-15T19:50:06.418Z,9.30
2018-09-15T19:52:34.941Z,11.97
2018-09-15T19:55:03.311Z,10.10
2018-09-15T19:57:32.415Z,11.33
2018-09-15T20:00:00.823Z,8.90
2018-09-15T20:02:29.249Z,14.47
2018-09-15T20:04:57.674Z,15.70
2018-09-15T20:07:26.004Z,11.03
2018-09-15T20:09:54.368Z,10.50
2018-09-15T20:12:22.741Z,10.13
2018-09-15T20:14:51.095Z,11.07
2018-09-15T20:17:18.344Z,14.80
2018-09-15T20:19:45.594Z,15.03
2018-09-15T20:22:14.122Z,15.43
2018-09-15T20:24:42.474Z,12.33
2018-09-15T20:27:10.831Z,12.27
2018-09-15T20:29:39.218Z,11.63
2018-09-15T20:32:07.580Z,13.70
2018-09-15T20:34:36.296Z,8.70
2018-09-15T20:37:04.635Z,12.73
2018-09-15T20:39:32.994Z,11.13
2018-09-15T20:42:01.378Z,11.17
2018-09-15T20:44:29.736Z,9.87
2018-09-15T20:46:58.075Z,10.70
2018-09-15T20:49:26.435Z,11.57
2018-09-15T20:51:54.795Z,11.70
2018-09-15T20:54:23.288Z,11.53
2018-09-15T20:56:51.672Z,12.53
2018-09-15T20:59:20.086Z,11.40
2018-09-15T21:01:48.438Z,13.00
2018-09-15T21:04:16.814Z,12.73
2018-09-15T21:06:45.150Z,10.47
2018-09-15T21:09:13.502Z,11.43
2018-09-15T21:11:41.845Z,9.50
2018-09-15T21:14:10.237Z,11.10
2018-09-15T21:16:38.642Z,10.03
2018-09-15T21:19:07.029Z,14.97
2018-09-15T21:21:35.427Z,10.43
2018-09-15T21:24:03.802Z,10.53
2018-09-15T21:26:32.165Z,13.63
2018-09-15T21:29:00.574Z,13.00
2018-09-15T21:31:28.915Z,10.67
2018-09-15T21:33:57.369Z,12.60
2018-09-15T21:36:25.777Z,9.80
2018-09-15T21:38:54.114Z,12.70
2018-09-15T21:41:22.443Z,9.40
2018-09-15T21:43:50.785Z,14.03
2018-09-15T21:46:19.113Z,12.57
2018-09-15T21:48:47.502Z,11.83
2018-09-15T21:51:15.940Z,11.57
2018-09-15T21:53:44.417Z,10.70
2018-09-15T21:56:12.738Z,9.40
2018-09-15T21:58:41.132Z,10.40
2018-09-15T22:01:09.405Z,14.27
2018-09-15T22:03:43.130Z,14.83
2018-09-15T22:06:11.515Z,11.50
2018-09-15T22:08:39.854Z,11.57
2018-09-15T22:11:08.186Z,14.53
2018-09-15T22:13:36.614Z,12.20
2018-09-15T22:16:05.026Z,10.90
2018-09-15T22:18:33.319Z,10.27
2018-09-15T22:21:01.710Z,11.43
2018-09-15T22:23:30.065Z,11.70
2018-09-15T22:25:58.655Z,15.73
2018-09-15T22:28:27.045Z,13.83
2018-09-15T22:30:56.167Z,13.33
2018-09-15T22:33:24.561Z,15.10
2018-09-15T22:35:52.914Z,18.57
2018-09-15T22:38:21.304Z,15.50
2018-09-15T22:40:50.991Z,14.10
2018-09-15T22:43:19.276Z,17.20
2018-09-15T22:45:47.913Z,14.90
2018-09-15T22:48:17.151Z,14.80
2018-09-15T22:50:45.571Z,15.83
2018-09-15T22:53:14.702Z,16.20
2018-09-15T22:55:43.124Z,17.23
2018-09-15T22:58:11.537Z,24.67
2018-09-15T23:00:39.942Z,15.10
2018-09-15T23:03:08.333Z,18.97
2018-09-15T23:05:36.785Z,14.10
2018-09-15T23:08:05.888Z,18.40
2018-09-15T23:10:34.235Z,13.97
2018-09-15T23:13:03.364Z,17.87
2018-09-15T23:15:32.440Z,19.50
2018-09-15T23:18:01.681Z,23.83
2018-09-15T23:20:30.937Z,21.80
2018-09-15T23:22:59.479Z,21.53
2018-09-15T23:25:27.911Z,18.67
2018-09-15T23:27:56.434Z,23.07
2018-09-15T23:30:24.825Z,28.97
2018-09-15T23:32:53.248Z,23.13
2018-09-15T23:35:28.764Z,26.03
2018-09-15T23:37:57.102Z,27.70
2018-09-15T23:40:25.423Z,25.83
2018-09-15T23:42:53.674Z,25.40
2018-09-15T23:45:22.024Z,24.97
2018-09-15T23:47:50.373Z,28.03
2018-09-15T23:50:18.641Z,23.13
2018-09-15T23:52:46.936Z,22.80
2018-09-15T23:55:15.207Z,22.17
2018-09-15T23:57:43.498Z,22.60
